Time;durP1;ratioP1;P1;durP2;ratioP2;P2;SDS_P1;SDS_P2;PMS_P1;PMS_P2;Temp;Humidity;BMP_temperature;BMP_pressure;BME280_temperature;BME280_humidity;BME280_pressure;Samples;Min_cycle;Max_cycle;Signal;HPM_P1;HPM_P2
2023/04/21 00:01:30;;;;;;;6.13;4.93;;;7.70;99.90;7.60;100804.00;;;;4929040;28;88537;-65
2023/04/21 00:03:56;;;;;;;5.97;5.00;;;7.70;99.90;7.50;100800.00;;;;4930059;28;87985;-65
2023/04/21 00:06:22;;;;;;;15.13;5.10;;;7.60;99.90;7.50;100783.00;;;;4932907;28;89433;-66
2023/04/21 00:08:50;;;;;;;10.40;4.83;;;7.60;99.90;7.50;100773.00;;;;4931147;28;88467;-64
2023/04/21 00:11:16;;;;;;;6.40;4.03;;;7.70;99.90;7.50;100785.00;;;;4934353;28;109288;-65
2023/04/21 00:13:42;;;;;;;6.50;5.40;;;7.70;99.90;7.50;100784.00;;;;4933963;28;88111;-65
2023/04/21 00:16:08;;;;;;;9.60;6.23;;;7.70;99.90;7.50;100789.00;;;;4933902;28;116791;-65
2023/04/21 00:18:33;;;;;;;5.73;5.03;;;7.60;99.90;7.50;100778.00;;;;4932262;28;108123;-64
2023/04/21 00:20:59;;;;;;;8.57;4.67;;;7.60;99.90;7.50;100786.00;;;;4930140;28;110716;-64
2023/04/21 00:23:24;;;;;;;7.87;5.50;;;7.50;99.90;7.40;100777.00;;;;4933825;28;108455;-65
2023/04/21 00:25:51;;;;;;;5.37;4.63;;;7.90;99.90;7.40;100780.00;;;;4933045;28;117243;-66
2023/04/21 00:28:16;;;;;;;5.50;4.63;;;7.60;99.90;7.40;100782.00;;;;4932224;28;89197;-65
2023/04/21 00:30:42;;;;;;;5.33;4.47;;;7.50;99.90;7.40;100774.00;;;;4937309;28;111140;-65
2023/04/21 00:33:08;;;;;;;4.93;4.43;;;7.60;99.90;7.40;100783.00;;;;4934475;28;109426;-66
2023/04/21 00:35:33;;;;;;;6.70;4.87;;;7.60;99.90;7.40;100773.00;;;;4932971;28;88750;-65
2023/04/21 00:37:59;;;;;;;5.90;4.13;;;7.60;99.90;7.40;100769.00;;;;4932167;28;116620;-66
2023/04/21 00:40:26;;;;;;;5.60;4.80;;;7.50;99.90;7.40;100780.00;;;;4931224;28;88727;-66
2023/04/21 00:42:51;;;;;;;9.73;5.83;;;7.50;99.90;7.40;100766.00;;;;4933649;28;87607;-65
2023/04/21 00:45:17;;;;;;;20.47;5.00;;;7.60;99.90;7.40;100775.00;;;;4933693;28;117115;-66
2023/04/21 00:47:43;;;;;;;5.37;3.83;;;8.00;99.90;7.40;100767.00;;;;4930589;28;116907;-65
2023/04/21 00:50:10;;;;;;;6.57;4.07;;;7.50;99.90;7.40;100764.00;;;;4938415;28;87813;-64
2023/04/21 00:52:38;;;;;;;7.53;4.47;;;7.50;99.90;7.40;100764.00;;;;4934506;28;87835;-66
2023/04/21 00:55:04;;;;;;;6.43;4.87;;;7.60;99.90;7.40;100767.00;;;;4932306;28;109879;-64
2023/04/21 00:57:31;;;;;;;7.57;4.90;;;7.50;99.90;7.40;100759.00;;;;4931620;28;88214;-65
2023/04/21 00:59:56;;;;;;;8.83;4.63;;;7.50;99.90;7.40;100759.00;;;;4929992;28;108942;-65
2023/04/21 01:02:23;;;;;;;6.03;4.60;;;7.50;99.90;7.40;100759.00;;;;4930751;28;107492;-65
2023/04/21 01:04:48;;;;;;;6.67;5.07;;;7.50;99.90;7.40;100763.00;;;;4930430;28;88806;-67
2023/04/21 01:07:14;;;;;;;6.70;4.77;;;7.80;99.90;7.40;100762.00;;;;4931320;28;116892;-64
2023/04/21 01:09:40;;;;;;;5.43;4.13;;;7.60;99.90;7.40;100761.00;;;;4933802;28;87600;-65
2023/04/21 01:12:10;;;;;;;7.43;4.67;;;7.50;99.90;7.40;100757.00;;;;4934118;28;87950;-66
2023/04/21 01:14:38;;;;;;;5.67;4.60;;;7.50;99.90;7.40;100758.00;;;;4935852;28;88355;-65
2023/04/21 01:17:04;;;;;;;6.83;4.87;;;7.50;99.90;7.40;100756.00;;;;4933677;28;99339;-65
2023/04/21 01:19:34;;;;;;;7.27;4.80;;;7.50;99.90;7.40;100752.00;;;;4933243;28;87839;-65
2023/04/21 01:22:01;;;;;;;4.07;3.73;;;7.90;99.90;7.40;100750.00;;;;4933359;28;87247;-65
2023/04/21 01:24:38;;;;;;;9.17;4.40;;;7.50;99.90;7.30;100748.00;;;;4932874;28;89002;-65
2023/04/21 01:27:10;;;;;;;10.87;4.67;;;7.50;99.90;7.30;100754.00;;;;4936536;28;87782;-67
2023/04/21 01:29:36;;;;;;;9.60;5.03;;;7.50;99.90;7.30;100745.00;;;;4936445;28;89212;-67
2023/04/21 01:32:12;;;;;;;5.70;4.57;;;7.90;99.90;7.30;100746.00;;;;4931450;28;87802;-65
2023/04/21 01:34:39;;;;;;;5.30;4.07;;;7.60;99.90;7.30;100741.00;;;;4934005;28;110758;-65
2023/04/21 01:37:11;;;;;;;5.67;4.27;;;7.50;99.90;7.30;100745.00;;;;4936126;28;88889;-66
2023/04/21 01:39:43;;;;;;;4.43;4.03;;;7.50;99.90;7.30;100743.00;;;;4939658;28;87783;-64
2023/04/21 01:42:09;;;;;;;5.33;3.83;;;7.50;99.90;7.30;100736.00;;;;4935299;28;87975;-66
2023/04/21 01:44:36;;;;;;;5.70;4.83;;;7.40;99.90;7.30;100741.00;;;;4937144;28;88866;-66
2023/04/21 01:47:02;;;;;;;5.93;4.63;;;7.40;99.90;7.30;100739.00;;;;4939176;28;88277;-64
2023/04/21 01:49:40;;;;;;;5.57;3.90;;;7.40;99.90;7.30;100742.00;;;;4935504;28;87801;-65
2023/04/21 01:52:06;;;;;;;12.97;4.30;;;7.40;99.90;7.30;100737.00;;;;4939062;28;87916;-65
2023/04/21 01:54:31;;;;;;;7.20;4.53;;;7.40;99.90;7.30;100730.00;;;;4939028;28;100837;-65
2023/04/21 01:56:57;;;;;;;6.77;4.70;;;7.40;99.90;7.20;100736.00;;;;4935926;28;118703;-66
2023/04/21 01:59:23;;;;;;;6.70;5.07;;;7.40;99.90;7.20;100726.00;;;;4931980;28;109515;-64
2023/04/21 02:01:48;;;;;;;5.87;4.17;;;7.80;99.90;7.20;100736.00;;;;4929317;28;87909;-65
2023/04/21 02:04:14;;;;;;;6.10;3.77;;;7.40;99.90;7.20;100735.00;;;;4933762;28;88300;-65
2023/04/21 02:06:40;;;;;;;8.33;5.70;;;7.60;99.90;7.20;100727.00;;;;4932789;28;117230;-65
2023/04/21 02:09:06;;;;;;;6.73;5.07;;;7.30;99.90;7.20;100728.00;;;;4937211;28;110644;-66
2023/04/21 02:11:31;;;;;;;7.53;4.63;;;7.70;99.90;7.20;100728.00;;;;4936292;28;90550;-66
2023/04/21 02:13:57;;;;;;;7.43;4.70;;;7.30;99.90;7.20;100722.00;;;;4932831;28;117703;-65
2023/04/21 02:16:25;;;;;;;6.80;4.80;;;7.30;99.90;7.20;100723.00;;;;4934908;28;117645;-66
2023/04/21 02:18:53;;;;;;;6.43;4.40;;;7.30;99.90;7.20;100728.00;;;;4936950;28;88758;-65
2023/04/21 02:21:22;;;;;;;9.07;4.80;;;7.40;99.90;7.20;100729.00;;;;4932350;28;87899;-66
2023/04/21 02:23:48;;;;;;;6.13;4.93;;;7.80;99.90;7.20;100723.00;;;;4930966;28;89091;-66
2023/04/21 02:26:14;;;;;;;5.87;4.00;;;7.30;99.90;7.20;100733.00;;;;4931439;28;110114;-66
2023/04/21 02:28:40;;;;;;;7.83;4.80;;;7.30;99.90;7.20;100724.00;;;;4929500;28;108828;-66
2023/04/21 02:31:06;;;;;;;7.23;5.17;;;7.30;99.90;7.20;100728.00;;;;4936090;28;108332;-65
2023/04/21 02:33:31;;;;;;;6.50;5.23;;;7.70;99.90;7.20;100728.00;;;;4938161;28;88363;-65
2023/04/21 02:35:57;;;;;;;7.27;4.33;;;7.90;99.90;7.20;100728.00;;;;4934005;28;116375;-66
2023/04/21 02:38:23;;;;;;;5.67;4.80;;;7.30;99.90;7.20;100734.00;;;;4934362;28;87893;-67
2023/04/21 02:40:49;;;;;;;4.73;4.33;;;7.30;99.90;7.20;100733.00;;;;4932136;28;108636;-66
2023/04/21 02:43:15;;;;;;;8.20;4.67;;;7.50;99.90;7.20;100738.00;;;;4932809;28;90108;-65
2023/04/21 02:45:41;;;;;;;4.03;3.70;;;7.30;99.90;7.10;100738.00;;;;4931006;28;112290;-65
2023/04/21 02:48:10;;;;;;;5.40;4.23;;;7.30;99.90;7.10;100734.00;;;;4937352;28;110204;-66
2023/04/21 02:50:36;;;;;;;7.67;4.03;;;7.20;99.90;7.10;100736.00;;;;4936647;28;88147;-65
2023/04/21 02:53:08;;;;;;;5.60;4.60;;;7.20;99.90;7.00;100718.00;;;;4932714;28;87917;-64
2023/04/21 02:55:34;;;;;;;5.53;4.43;;;7.20;99.90;7.00;100727.00;;;;4933083;28;117614;-64
2023/04/21 02:57:59;;;;;;;4.80;3.10;;;7.10;99.90;6.90;100727.00;;;;4931539;28;111164;-64
2023/04/21 03:00:25;;;;;;;9.00;4.50;;;7.70;99.90;6.90;100722.00;;;;4933312;28;87192;-64
2023/04/21 03:02:52;;;;;;;6.77;4.17;;;7.10;99.90;6.90;100725.00;;;;4934504;28;88708;-65
2023/04/21 03:05:17;;;;;;;6.70;4.50;;;7.00;99.90;6.80;100727.00;;;;4933988;28;89209;-64
2023/04/21 03:07:46;;;;;;;5.97;5.27;;;7.00;99.90;6.80;100726.00;;;;4934678;28;99335;-64
2023/04/21 03:10:12;;;;;;;8.80;4.90;;;6.90;99.90;6.80;100728.00;;;;4935191;28;108977;-64
2023/04/21 03:12:37;;;;;;;6.77;4.50;;;7.30;99.90;6.70;100732.00;;;;4933174;28;88255;-64
2023/04/21 03:15:04;;;;;;;6.13;5.03;;;6.90;99.90;6.70;100728.00;;;;4935444;28;87822;-65
2023/04/21 03:17:30;;;;;;;8.33;4.43;;;6.90;99.90;6.70;100726.00;;;;4934711;28;88360;-65
2023/04/21 03:19:55;;;;;;;9.07;4.53;;;7.00;99.90;6.60;100717.00;;;;4933168;28;109129;-65
2023/04/21 03:22:21;;;;;;;6.10;4.93;;;6.80;99.90;6.60;100722.00;;;;4932612;28;117512;-65
2023/04/21 03:24:46;;;;;;;8.20;5.27;;;7.40;99.90;6.60;100709.00;;;;4934485;28;115412;-64
2023/04/21 03:27:12;;;;;;;11.93;4.47;;;6.70;99.90;6.60;100710.00;;;;4932884;28;110162;-65
2023/04/21 03:29:38;;;;;;;5.27;4.33;;;7.20;99.90;6.50;100716.00;;;;4933221;28;110669;-64
2023/04/21 03:32:03;;;;;;;4.70;4.30;;;7.00;99.90;6.60;100716.00;;;;4934628;28;119270;-65
2023/04/21 03:34:29;;;;;;;6.13;4.50;;;6.70;99.90;6.60;100715.00;;;;4933642;28;118009;-66
2023/04/21 03:36:55;;;;;;;6.73;5.30;;;7.00;99.90;6.60;100714.00;;;;4929911;28;87975;-66
2023/04/21 03:39:20;;;;;;;6.60;5.20;;;6.80;99.90;6.60;100722.00;;;;4929741;28;107798;-66
2023/04/21 03:41:47;;;;;;;10.87;4.50;;;7.10;99.90;6.60;100720.00;;;;4929891;28;117959;-65
2023/04/21 03:44:12;;;;;;;9.50;4.93;;;6.70;99.90;6.60;100717.00;;;;4934934;28;88610;-66
2023/04/21 03:46:38;;;;;;;6.87;5.03;;;6.80;99.90;6.60;100721.00;;;;4931701;28;109564;-65
2023/04/21 03:49:04;;;;;;;6.00;4.63;;;6.70;99.90;6.60;100716.00;;;;4932314;28;111770;-64
2023/04/21 03:51:31;;;;;;;8.63;6.70;;;7.30;99.90;6.60;100716.00;;;;4933028;28;97738;-65
2023/04/21 03:53:59;;;;;;;8.60;6.00;;;6.80;99.90;6.60;100723.00;;;;4930517;28;87791;-65
2023/04/21 03:56:25;;;;;;;7.47;4.60;;;7.30;99.90;6.60;100722.00;;;;4932111;28;108529;-65
2023/04/21 03:58:51;;;;;;;5.70;5.20;;;7.10;99.90;6.60;100727.00;;;;4931951;28;99305;-64
2023/04/21 04:01:17;;;;;;;5.07;4.40;;;6.80;99.90;6.60;100728.00;;;;4935607;28;89010;-64
2023/04/21 04:03:42;;;;;;;6.07;4.53;;;6.90;99.90;6.60;100723.00;;;;4932100;28;117019;-66
2023/04/21 04:06:08;;;;;;;7.67;4.93;;;7.30;99.90;6.60;100717.00;;;;4933013;28;106201;-66
2023/04/21 04:08:34;;;;;;;8.00;4.50;;;6.80;99.90;6.60;100731.00;;;;4931269;28;87709;-65
2023/04/21 04:10:59;;;;;;;6.23;4.07;;;7.30;99.90;6.60;100733.00;;;;4929499;28;87893;-64
2023/04/21 04:13:26;;;;;;;5.30;4.63;;;7.10;99.90;6.60;100721.00;;;;4933740;28;117477;-65
2023/04/21 04:15:52;;;;;;;10.23;4.43;;;6.70;99.90;6.60;100729.00;;;;4934317;28;87914;-65
2023/04/21 04:18:18;;;;;;;7.57;4.47;;;7.00;99.90;6.60;100725.00;;;;4932901;28;87667;-66
2023/04/21 04:20:43;;;;;;;6.50;4.77;;;6.70;99.90;6.60;100739.00;;;;4935908;28;91068;-65
2023/04/21 04:23:09;;;;;;;4.67;4.13;;;7.30;99.90;6.60;100735.00;;;;4931419;28;109588;-64
2023/04/21 04:25:36;;;;;;;6.57;4.37;;;6.80;99.90;6.60;100734.00;;;;4934413;28;110633;-64
2023/04/21 04:28:01;;;;;;;8.63;4.20;;;6.80;99.90;6.70;100745.00;;;;4935438;28;88039;-65
2023/04/21 04:30:27;;;;;;;5.20;3.33;;;6.80;99.90;6.70;100737.00;;;;4934753;28;118351;-65
2023/04/21 04:32:54;;;;;;;6.80;5.33;;;6.90;99.90;6.70;100728.00;;;;4929540;28;91015;-66
2023/04/21 04:35:19;;;;;;;8.30;5.00;;;6.90;99.90;6.70;100737.00;;;;4930575;28;87744;-66
2023/04/21 04:37:45;;;;;;;5.20;4.57;;;6.90;99.90;6.80;100739.00;;;;4931016;28;109265;-65
2023/04/21 04:40:11;;;;;;;9.57;5.27;;;6.80;99.90;6.80;100740.00;;;;4935888;28;88687;-66
2023/04/21 04:42:38;;;;;;;5.10;3.37;;;6.90;99.90;6.80;100738.00;;;;4930406;28;117347;-65
2023/04/21 04:45:07;;;;;;;4.83;4.33;;;7.50;99.90;6.80;100735.00;;;;4933949;28;88960;-67
2023/04/21 04:47:34;;;;;;;10.13;4.73;;;7.00;99.90;6.90;100730.00;;;;4932955;28;87906;-65
2023/04/21 04:50:00;;;;;;;8.17;4.50;;;7.00;99.90;6.90;100742.00;;;;4933688;28;93135;-65
2023/04/21 04:52:25;;;;;;;7.17;4.90;;;7.00;99.90;6.90;100741.00;;;;4932062;28;117297;-65
2023/04/21 04:54:51;;;;;;;11.90;4.90;;;7.00;99.90;7.00;100748.00;;;;4933775;28;87824;-65
2023/04/21 04:57:17;;;;;;;4.53;3.70;;;7.10;99.90;7.00;100743.00;;;;4934500;28;92964;-65
2023/04/21 04:59:42;;;;;;;4.60;3.60;;;7.20;99.90;7.20;100738.00;;;;4933079;28;117609;-65
2023/04/21 05:02:09;;;;;;;5.00;4.27;;;7.30;99.90;7.30;100744.00;;;;4934419;28;91851;-66
2023/04/21 05:04:35;;;;;;;7.13;4.93;;;7.40;99.90;7.40;100744.00;;;;4927595;28;87800;-66
2023/04/21 05:07:00;;;;;;;4.93;4.23;;;7.40;99.90;7.50;100738.00;;;;4929119;28;99178;-65
2023/04/21 05:09:26;;;;;;;4.70;4.23;;;7.60;99.90;7.60;100745.00;;;;4931332;28;117160;-65
2023/04/21 05:11:51;;;;;;;6.27;3.43;;;7.60;99.90;7.70;100734.00;;;;4935897;28;117365;-65
2023/04/21 05:14:17;;;;;;;14.77;5.10;;;7.80;99.90;7.80;100745.00;;;;4931682;28;109498;-65
2023/04/21 05:16:43;;;;;;;6.00;5.00;;;7.90;99.90;8.00;100749.00;;;;4937064;28;108286;-65
2023/04/21 05:19:09;;;;;;;7.63;5.60;;;8.00;99.90;8.10;100755.00;;;;4931882;28;117455;-68
2023/04/21 05:21:34;;;;;;;6.93;5.10;;;8.10;99.90;8.20;100759.00;;;;4933857;28;87732;-64
2023/04/21 05:24:00;;;;;;;8.60;5.43;;;8.30;99.90;8.30;100753.00;;;;4934921;28;110000;-64
2023/04/21 05:26:27;;;;;;;11.30;6.00;;;8.40;99.90;8.50;100747.00;;;;4936230;28;87559;-64
2023/04/21 05:28:57;;;;;;;12.13;6.43;;;8.50;99.90;8.60;100759.00;;;;4934811;28;88390;-66
2023/04/21 05:31:23;;;;;;;8.10;4.90;;;8.60;99.90;8.70;100752.00;;;;4929126;28;87879;-64
2023/04/21 05:33:49;;;;;;;6.97;4.63;;;8.70;99.90;8.80;100759.00;;;;4931837;28;91029;-66
2023/04/21 05:36:15;;;;;;;4.40;3.97;;;8.80;99.90;8.90;100766.00;;;;4931224;28;89661;-67
2023/04/21 05:38:41;;;;;;;8.60;4.77;;;9.00;99.90;9.10;100763.00;;;;4927357;28;105108;-64
2023/04/21 05:41:07;;;;;;;7.70;5.23;;;9.10;99.90;9.20;100775.00;;;;4933458;28;104293;-64
2023/04/21 05:43:33;;;;;;;5.50;4.03;;;9.60;99.90;9.40;100777.00;;;;4931037;28;87909;-66
2023/04/21 05:46:07;;;;;;;8.63;5.53;;;9.40;99.90;9.50;100774.00;;;;4934158;28;88003;-64
2023/04/21 05:48:33;;;;;;;9.10;5.57;;;9.50;99.90;9.60;100774.00;;;;4931307;28;89402;-65
2023/04/21 05:51:10;;;;;;;5.33;4.50;;;9.60;99.90;9.70;100769.00;;;;4929952;28;98082;-66
2023/04/21 05:53:40;;;;;;;6.87;4.97;;;9.70;99.90;9.80;100776.00;;;;4933106;28;88085;-64
2023/04/21 05:56:08;;;;;;;7.33;5.53;;;9.80;99.90;9.90;100764.00;;;;4933451;28;87934;-64
2023/04/21 05:58:34;;;;;;;6.70;5.93;;;9.90;99.90;10.00;100761.00;;;;4925865;28;90219;-66
2023/04/21 06:01:00;;;;;;;5.33;4.80;;;10.00;99.90;10.10;100754.00;;;;4934705;28;88250;-65
2023/04/21 06:03:26;;;;;;;8.43;6.17;;;10.10;99.90;10.30;100763.00;;;;4933425;28;87944;-66
2023/04/21 06:06:04;;;;;;;7.00;5.10;;;10.30;99.90;10.40;100757.00;;;;4933024;28;108961;-65
2023/04/21 06:08:30;;;;;;;10.43;5.70;;;10.40;99.90;10.50;100757.00;;;;4932601;28;88527;-64
2023/04/21 06:10:56;;;;;;;7.63;5.27;;;10.40;99.90;10.60;100752.00;;;;4933363;28;88411;-64
2023/04/21 06:13:21;;;;;;;9.50;6.37;;;10.60;99.90;10.80;100752.00;;;;4937565;28;100836;-64
2023/04/21 06:15:47;;;;;;;13.03;5.73;;;10.70;99.90;10.90;100745.00;;;;4934610;28;107575;-65
2023/04/21 06:18:13;;;;;;;7.93;4.83;;;10.90;99.90;11.10;100743.00;;;;4935875;28;106155;-66
2023/04/21 06:20:39;;;;;;;10.50;5.10;;;11.00;99.90;11.20;100754.00;;;;4937599;28;98803;-64
2023/04/21 06:23:05;;;;;;;6.90;4.73;;;11.10;99.90;11.30;100749.00;;;;4934296;28;89115;-64
2023/04/21 06:25:31;;;;;;;7.97;5.27;;;11.30;99.90;11.40;100743.00;;;;4934068;28;108679;-65
2023/04/21 06:27:56;;;;;;;5.27;4.77;;;11.40;99.90;11.60;100753.00;;;;4933362;28;116738;-64
2023/04/21 06:30:23;;;;;;;6.17;5.43;;;11.50;99.90;11.70;100744.00;;;;4934686;28;118079;-65
2023/04/21 06:32:48;;;;;;;8.10;5.17;;;11.70;99.90;11.80;100741.00;;;;4931626;28;88118;-65
2023/04/21 06:35:14;;;;;;;8.90;5.37;;;11.80;99.90;11.90;100745.00;;;;4933079;28;87779;-65
2023/04/21 06:37:40;;;;;;;10.00;5.90;;;11.90;99.90;12.10;100743.00;;;;4935040;28;118035;-66
2023/04/21 06:40:07;;;;;;;8.93;6.40;;;12.00;99.90;12.30;100743.00;;;;4934946;28;89029;-65
2023/04/21 06:42:33;;;;;;;6.50;4.30;;;12.20;99.90;12.50;100743.00;;;;4933111;28;98461;-65
2023/04/21 06:44:58;;;;;;;4.73;4.20;;;12.30;99.90;12.60;100743.00;;;;4933556;28;108227;-65
2023/04/21 06:47:25;;;;;;;10.77;5.47;;;12.50;99.90;12.80;100742.00;;;;4928908;28;90367;-64
2023/04/21 06:49:50;;;;;;;7.03;5.60;;;13.10;99.90;12.90;100737.00;;;;4929319;28;89852;-64
2023/04/21 06:52:16;;;;;;;6.33;4.73;;;12.80;99.90;12.90;100741.00;;;;4931128;28;110926;-64
2023/04/21 06:54:42;;;;;;;5.20;4.60;;;12.90;99.90;13.00;100740.00;;;;4930964;28;106909;-65
2023/04/21 06:57:07;;;;;;;5.90;4.93;;;13.00;99.90;13.20;100745.00;;;;4934171;28;116618;-64
2023/04/21 06:59:33;;;;;;;7.77;5.77;;;13.10;99.90;13.40;100754.00;;;;4937107;28;116983;-65
2023/04/21 07:01:59;;;;;;;6.77;4.33;;;13.30;99.90;13.60;100747.00;;;;4933584;28;88121;-65
2023/04/21 07:04:28;;;;;;;7.63;4.63;;;13.50;99.90;13.90;100750.00;;;;4931393;28;109968;-64
2023/04/21 07:06:54;;;;;;;8.33;5.33;;;13.70;99.90;14.10;100748.00;;;;4935065;28;87659;-65
2023/04/21 07:09:20;;;;;;;8.80;5.70;;;13.90;99.90;14.30;100744.00;;;;4939737;28;88659;-65
2023/04/21 07:11:49;;;;;;;11.70;5.13;;;14.10;99.90;14.50;100746.00;;;;4931993;28;88700;-65
2023/04/21 07:14:14;;;;;;;8.35;5.82;;;14.30;99.90;14.60;100752.00;;;;4931270;28;107353;-65
2023/04/21 07:16:40;;;;;;;10.15;6.03;;;14.50;99.90;14.70;100744.00;;;;4933303;28;118526;-66
2023/04/21 07:19:09;;;;;;;7.47;5.07;;;14.60;99.90;14.80;100751.00;;;;4934577;28;88037;-65
2023/04/21 07:21:35;;;;;;;12.75;5.05;;;14.70;99.90;15.00;100750.00;;;;4935333;28;110369;-65
2023/04/21 07:24:02;;;;;;;10.38;5.35;;;14.90;99.90;15.20;100747.00;;;;4932183;28;108377;-64
2023/04/21 07:26:28;;;;;;;10.05;4.28;;;15.00;99.90;15.40;100748.00;;;;4931835;28;89278;-64
2023/04/21 07:28:57;;;;;;;6.07;3.70;;;15.30;99.90;15.60;100747.00;;;;4931044;28;116992;-65
2023/04/21 07:31:23;;;;;;;8.52;4.53;;;15.40;99.90;15.70;100751.00;;;;4936714;28;87893;-64
2023/04/21 07:33:49;;;;;;;6.20;3.75;;;15.60;99.90;15.80;100753.00;;;;4936388;28;95863;-64
2023/04/21 07:36:15;;;;;;;11.90;5.95;;;15.70;99.90;16.00;100750.00;;;;4933690;28;89645;-64
2023/04/21 07:38:42;;;;;;;6.45;4.88;;;15.90;99.90;16.20;100751.00;;;;4935638;28;88888;-65
2023/04/21 07:41:10;;;;;;;5.93;4.07;;;16.10;99.90;16.40;100747.00;;;;4933123;28;87929;-67
2023/04/21 07:43:37;;;;;;;7.57;5.28;;;16.20;99.90;16.50;100749.00;;;;4933346;28;88410;-66
2023/04/21 07:46:03;;;;;;;8.82;5.07;;;16.40;99.90;16.60;100737.00;;;;4934186;28;109948;-67
2023/04/21 07:48:28;;;;;;;7.65;4.28;;;16.50;99.60;16.60;100756.00;;;;4934352;28;88636;-66
2023/04/21 07:50:54;;;;;;;7.50;4.72;;;16.50;99.90;16.80;100740.00;;;;4935105;28;111752;-66
2023/04/21 07:53:20;;;;;;;9.25;4.85;;;16.60;99.80;16.90;100747.00;;;;4932259;28;109221;-65
2023/04/21 07:55:45;;;;;;;8.43;5.05;;;16.70;99.90;17.10;100750.00;;;;4936489;28;87978;-65
2023/04/21 07:58:12;;;;;;;9.07;4.65;;;17.00;99.90;17.40;100748.00;;;;4934878;28;110187;-66
2023/04/21 08:00:38;;;;;;;11.20;4.65;;;17.20;99.90;17.60;100747.00;;;;4931775;28;88960;-64
2023/04/21 08:03:04;;;;;;;5.28;3.83;;;17.40;96.50;17.60;100745.00;;;;4930392;28;109072;-65
2023/04/21 08:05:30;;;;;;;6.13;4.28;;;17.50;96.20;17.70;100754.00;;;;4933664;28;88270;-66
2023/04/21 08:07:56;;;;;;;8.30;4.65;;;17.50;96.60;17.80;100754.00;;;;4931778;28;88100;-67
2023/04/21 08:10:22;;;;;;;7.03;4.80;;;17.70;96.70;17.90;100746.00;;;;4934293;28;111888;-65
2023/04/21 08:12:47;;;;;;;6.88;4.05;;;17.80;96.30;18.10;100742.00;;;;4935299;28;87938;-65
2023/04/21 08:15:13;;;;;;;8.13;4.88;;;17.90;96.20;18.30;100745.00;;;;4932725;28;117736;-66
2023/04/21 08:17:39;;;;;;;5.07;4.28;;;18.10;96.90;18.50;100750.00;;;;4937500;28;89020;-66
2023/04/21 08:20:05;;;;;;;6.05;4.07;;;18.40;96.10;18.80;100745.00;;;;4934975;28;87820;-65
2023/04/21 08:22:31;;;;;;;10.15;4.95;;;18.60;96.20;19.00;100748.00;;;;4932322;28;87939;-65
2023/04/21 08:24:57;;;;;;;4.65;3.35;;;18.80;94.50;19.20;100742.00;;;;4930374;28;89357;-65
2023/04/21 08:27:23;;;;;;;4.88;4.13;;;19.00;94.90;19.40;100737.00;;;;4933587;28;89337;-66
2023/04/21 08:29:49;;;;;;;6.88;4.55;;;19.20;94.30;19.60;100735.00;;;;4933395;28;87766;-65
2023/04/21 08:32:21;;;;;;;6.53;4.28;;;19.40;93.80;19.80;100736.00;;;;4933652;28;88056;-65
2023/04/21 08:34:47;;;;;;;4.95;3.70;;;19.60;93.30;20.00;100739.00;;;;4934602;28;89027;-66
2023/04/21 08:37:13;;;;;;;6.43;3.78;;;19.80;92.00;20.30;100736.00;;;;4930574;28;88154;-65
2023/04/21 08:39:39;;;;;;;7.45;4.03;;;20.00;90.00;20.40;100736.00;;;;4930925;28;95365;-66
2023/04/21 08:42:05;;;;;;;6.40;4.93;;;20.20;90.00;20.50;100736.00;;;;4931407;28;108404;-65
2023/04/21 08:44:31;;;;;;;13.57;4.80;;;20.30;88.80;20.60;100735.00;;;;4932963;28;117288;-65
2023/04/21 08:46:58;;;;;;;8.90;4.38;;;20.40;88.00;20.90;100728.00;;;;4935194;28;116902;-66
2023/04/21 08:49:29;;;;;;;3.97;3.17;;;20.70;78.90;20.90;100733.00;;;;4934201;28;88723;-65
2023/04/21 08:51:55;;;;;;;4.20;3.25;;;20.80;73.40;21.00;100731.00;;;;4933097;28;87867;-66
2023/04/21 08:54:21;;;;;;;3.78;3.38;;;20.80;71.50;21.00;100726.00;;;;4929982;28;97714;-65
2023/04/21 08:56:49;;;;;;;5.13;2.75;;;20.80;70.90;21.10;100717.00;;;;4932883;28;117865;-65
2023/04/21 08:59:15;;;;;;;3.92;2.97;;;20.90;66.90;21.10;100730.00;;;;4931520;28;89377;-66
2023/04/21 09:02:09;;;;;;;5.50;2.97;;;20.90;69.20;21.20;100730.00;;;;4933496;28;87900;-65
2023/04/21 09:04:45;;;;;;;4.50;3.35;;;21.00;60.60;21.20;100731.00;;;;4931733;28;87862;-67
2023/04/21 09:07:11;;;;;;;5.90;2.97;;;21.00;63.20;21.20;100732.00;;;;4930101;28;88691;-68
2023/04/21 09:09:54;;;;;;;4.60;3.47;;;21.00;62.50;21.20;100728.00;;;;4933280;28;88173;-66
2023/04/21 09:12:20;;;;;;;5.10;2.90;;;21.00;60.70;21.20;100726.00;;;;4935272;28;87978;-65
2023/04/21 09:14:46;;;;;;;4.75;2.95;;;21.00;59.40;21.20;100727.00;;;;4934547;28;89326;-66
2023/04/21 09:17:15;;;;;;;5.25;3.05;;;21.00;61.60;21.30;100728.00;;;;4932843;28;88699;-66
2023/04/21 09:19:41;;;;;;;2.97;2.17;;;21.00;61.40;21.40;100714.00;;;;4929796;28;87823;-66
2023/04/21 09:22:07;;;;;;;6.50;2.90;;;21.10;61.40;21.60;100721.00;;;;4930750;28;88042;-65
2023/04/21 09:24:33;;;;;;;5.43;3.22;;;21.30;62.30;21.80;100723.00;;;;4934218;28;88954;-66
2023/04/21 09:27:03;;;;;;;5.97;3.13;;;21.50;58.40;21.90;100713.00;;;;4931758;28;87988;-68
2023/04/21 09:29:29;;;;;;;3.50;2.58;;;21.50;58.80;22.00;100719.00;;;;4935228;28;88498;-68
2023/04/21 09:31:54;;;;;;;4.65;2.65;;;21.70;56.50;22.20;100718.00;;;;4933780;28;87211;-68
2023/04/21 09:34:23;;;;;;;4.15;2.17;;;21.80;55.80;22.20;100706.00;;;;4931680;28;116324;-70
2023/04/21 09:37:00;;;;;;;3.42;2.22;;;21.90;54.50;22.30;100709.00;;;;4932530;28;88676;-69
2023/04/21 09:39:30;;;;;;;3.72;2.42;;;21.90;55.30;22.40;100706.00;;;;4931301;28;88932;-70
2023/04/21 09:41:57;;;;;;;8.77;2.47;;;22.10;51.10;22.30;100698.00;;;;4936792;28;87825;-69
2023/04/21 09:44:27;;;;;;;3.75;2.33;;;22.00;50.20;22.20;100697.00;;;;4939538;28;88403;-70
2023/04/21 09:47:03;;;;;;;3.38;2.65;;;21.90;51.40;22.10;100696.00;;;;4934534;28;100550;-70
2023/04/21 09:49:32;;;;;;;4.03;2.10;;;21.80;48.10;22.00;100684.00;;;;4936546;28;102365;-70
2023/04/21 09:51:59;;;;;;;8.65;2.60;;;21.80;48.90;22.00;100693.00;;;;4938009;28;92043;-70
2023/04/21 09:54:33;;;;;;;2.95;2.13;;;21.70;47.40;21.90;100693.00;;;;4937687;28;108650;-69
2023/04/21 09:57:01;;;;;;;1.48;1.15;;;21.60;48.60;22.00;100689.00;;;;4933377;28;87840;-70
2023/04/21 09:59:44;;;;;;;2.10;1.63;;;21.60;46.50;22.10;100691.00;;;;4932776;28;88071;-69
2023/04/21 10:02:11;;;;;;;8.30;2.13;;;21.70;46.90;22.20;100683.00;;;;4935039;28;88214;-69
2023/04/21 10:04:40;;;;;;;4.60;2.65;;;21.80;45.90;22.30;100677.00;;;;4933460;28;95141;-70
2023/04/21 10:07:06;;;;;;;3.38;2.10;;;21.90;45.90;22.40;100685.00;;;;4950657;28;90010;-69
2023/04/21 10:09:48;;;;;;;2.00;1.63;;;22.00;45.10;22.40;100685.00;;;;4932404;28;87808;-69
2023/04/21 10:12:14;;;;;;;2.92;1.75;;;22.00;44.40;22.30;100676.00;;;;4926886;28;88010;-69
2023/04/21 10:14:40;;;;;;;2.05;1.48;;;22.00;42.90;22.30;100671.00;;;;4914876;28;116807;-69
2023/04/21 10:17:08;;;;;;;3.90;1.80;;;21.90;43.20;22.30;100670.00;;;;4933478;28;88417;-69
2023/04/21 10:19:38;;;;;;;2.05;1.67;;;21.90;44.20;22.50;100676.00;;;;4935075;28;90777;-68
2023/04/21 10:22:08;;;;;;;1.90;1.60;;;22.00;42.50;22.70;100670.00;;;;4933527;28;87228;-70
2023/04/21 10:24:39;;;;;;;5.25;1.80;;;22.20;41.60;22.70;100661.00;;;;4933324;28;88131;-70
2023/04/21 10:27:10;;;;;;;1.58;1.33;;;22.30;40.50;22.70;100668.00;;;;4932032;28;88049;-69
2023/04/21 10:29:36;;;;;;;1.45;1.20;;;22.30;40.00;22.80;100664.00;;;;4915355;28;88863;-70
2023/04/21 10:32:03;;;;;;;1.65;1.52;;;22.30;40.30;22.90;100665.00;;;;4931729;28;98618;-68
2023/04/21 10:34:35;;;;;;;2.25;1.88;;;22.50;39.60;23.00;100651.00;;;;4930539;28;88031;-68
2023/04/21 10:37:03;;;;;;;3.40;1.67;;;22.60;40.10;23.10;100656.00;;;;4929897;28;88079;-69
2023/04/21 10:39:42;;;;;;;1.75;1.35;;;22.70;39.00;23.30;100647.00;;;;4931810;28;87886;-68
2023/04/21 10:42:19;;;;;;;4.20;1.63;;;22.90;39.60;23.50;100652.00;;;;4931835;28;87930;-69
2023/04/21 10:45:00;;;;;;;3.08;1.83;;;23.00;38.70;23.70;100655.00;;;;4927827;28;88659;-69
2023/04/21 10:47:50;;;;;;;2.63;1.35;;;23.20;39.20;23.70;100646.00;;;;4933017;28;87182;-68
2023/04/21 10:50:28;;;;;;;4.35;2.25;;;23.40;37.80;23.80;100644.00;;;;4928279;28;88330;-68
2023/04/21 10:53:10;;;;;;;3.70;1.73;;;23.40;37.40;23.90;100639.00;;;;4911476;28;87951;-68